createdAt,value
2023-08-19T00:01:09.739Z,26.90
2023-08-19T00:03:37.120Z,26.85
2023-08-19T00:06:10.782Z,26.83
2023-08-19T00:08:38.332Z,26.93
2023-08-19T00:11:05.934Z,26.99
2023-08-19T00:13:33.383Z,26.92
2023-08-19T00:16:05.351Z,26.78
2023-08-19T00:18:32.861Z,26.68
2023-08-19T00:21:00.147Z,26.69
2023-08-19T00:23:27.433Z,26.71
2023-08-19T00:25:54.750Z,26.69
2023-08-19T00:28:24.813Z,26.70
2023-08-19T00:30:52.228Z,26.74
2023-08-19T00:33:19.600Z,26.80
2023-08-19T00:35:51.921Z,26.80
2023-08-19T00:38:19.319Z,26.75
2023-08-19T00:40:47.070Z,26.66
2023-08-19T00:43:14.408Z,26.56
2023-08-19T00:45:47.683Z,26.53
2023-08-19T00:48:18.464Z,26.44
2023-08-19T00:50:46.351Z,26.52
2023-08-19T00:53:15.068Z,26.54
2023-08-19T00:55:42.685Z,26.63
2023-08-19T00:58:11.465Z,26.62
2023-08-19T01:00:39.360Z,26.51
2023-08-19T01:03:07.590Z,26.52
2023-08-19T01:05:50.982Z,26.47
2023-08-19T01:08:26.912Z,26.47
2023-08-19T01:11:07.144Z,26.41
2023-08-19T01:13:46.059Z,26.55
2023-08-19T01:16:21.904Z,26.61
2023-08-19T01:18:49.946Z,26.65
2023-08-19T01:21:21.229Z,26.57
2023-08-19T01:23:50.144Z,26.39
2023-08-19T01:26:18.648Z,26.45
2023-08-19T01:28:46.798Z,26.37
2023-08-19T01:31:14.109Z,26.23
2023-08-19T01:33:42.104Z,26.34
2023-08-19T01:36:30.660Z,26.25
2023-08-19T01:39:06.734Z,26.28
2023-08-19T01:41:35.669Z,26.20
2023-08-19T01:44:04.097Z,26.21
2023-08-19T01:46:31.569Z,26.12
2023-08-19T01:48:58.957Z,26.06
2023-08-19T01:51:31.669Z,26.04
2023-08-19T01:53:59.179Z,25.98
2023-08-19T01:56:26.540Z,25.94
2023-08-19T01:58:55.454Z,25.92
2023-08-19T02:01:23.348Z,25.93
2023-08-19T02:03:50.777Z,25.99
2023-08-19T02:06:18.122Z,26.12
2023-08-19T02:08:45.534Z,26.18
2023-08-19T02:11:14.996Z,26.24
2023-08-19T02:13:43.668Z,26.29
2023-08-19T02:16:11.069Z,26.27
2023-08-19T02:18:38.354Z,26.28
2023-08-19T02:21:05.640Z,26.29
2023-08-19T02:23:32.944Z,26.21
2023-08-19T02:26:00.219Z,26.22
2023-08-19T02:28:28.732Z,26.15
2023-08-19T02:31:01.920Z,26.11
2023-08-19T02:33:32.370Z,25.94
2023-08-19T02:35:59.770Z,25.99
2023-08-19T02:38:27.149Z,26.03
2023-08-19T02:40:54.783Z,25.95
2023-08-19T02:43:22.067Z,25.79
2023-08-19T02:45:49.489Z,25.65
2023-08-19T02:48:17.328Z,25.55
2023-08-19T02:50:47.433Z,25.64
2023-08-19T02:53:14.775Z,25.70
2023-08-19T02:55:42.662Z,25.83
2023-08-19T02:58:10.856Z,25.82
2023-08-19T03:00:38.349Z,25.73
2023-08-19T03:03:07.149Z,25.79
2023-08-19T03:05:40.716Z,25.91
2023-08-19T03:08:09.624Z,25.94
2023-08-19T03:10:38.630Z,25.91
2023-08-19T03:13:07.244Z,25.94
2023-08-19T03:15:39.576Z,25.95
2023-08-19T03:18:07.251Z,25.93
2023-08-19T03:20:35.343Z,25.91
2023-08-19T03:23:02.906Z,25.94
2023-08-19T03:25:30.391Z,25.95
2023-08-19T03:27:59.825Z,25.97
2023-08-19T03:30:27.118Z,25.99
2023-08-19T03:32:54.501Z,25.91
2023-08-19T03:35:22.106Z,25.83
2023-08-19T03:37:49.503Z,25.72
2023-08-19T03:40:16.903Z,25.66
2023-08-19T03:42:44.276Z,25.64
2023-08-19T03:45:11.582Z,25.74
2023-08-19T03:47:38.897Z,25.87
2023-08-19T03:50:06.827Z,25.83
2023-08-19T03:52:34.177Z,25.74
2023-08-19T03:55:01.569Z,25.68
2023-08-19T03:57:29.021Z,25.56
2023-08-19T03:59:57.008Z,25.56
2023-08-19T04:02:24.488Z,25.70
2023-08-19T04:05:07.456Z,25.69
2023-08-19T04:07:36.121Z,25.68
2023-08-19T04:10:05.207Z,25.69
2023-08-19T04:12:36.095Z,25.71
2023-08-19T04:15:04.380Z,25.73
2023-08-19T04:17:35.660Z,25.66
2023-08-19T04:20:10.201Z,25.50
2023-08-19T04:22:41.813Z,25.45
2023-08-19T04:25:09.402Z,25.48
2023-08-19T04:27:36.838Z,25.61
2023-08-19T04:30:06.399Z,25.63
2023-08-19T04:32:34.630Z,25.61
2023-08-19T04:35:02.454Z,25.48
2023-08-19T04:37:30.156Z,25.55
2023-08-19T04:39:58.005Z,25.59
2023-08-19T04:42:32.823Z,25.65
2023-08-19T04:45:00.215Z,25.67
2023-08-19T04:47:29.697Z,25.65
2023-08-19T04:50:00.421Z,25.69
2023-08-19T04:52:28.165Z,25.61
2023-08-19T04:54:55.599Z,25.54
2023-08-19T04:57:23.005Z,25.52
2023-08-19T04:59:51.197Z,25.57
2023-08-19T05:02:18.561Z,25.62
2023-08-19T05:04:46.042Z,25.64
2023-08-19T05:07:13.426Z,25.56
2023-08-19T05:09:40.790Z,25.64
2023-08-19T05:12:08.502Z,25.70
2023-08-19T05:14:35.841Z,25.69
2023-08-19T05:17:03.201Z,25.74
2023-08-19T05:19:32.654Z,25.80
2023-08-19T05:21:59.950Z,25.82
2023-08-19T05:24:27.412Z,25.94
2023-08-19T05:26:54.971Z,25.95
2023-08-19T05:29:22.364Z,25.90
2023-08-19T05:31:50.060Z,25.90
2023-08-19T05:34:17.557Z,25.95
2023-08-19T05:36:46.448Z,26.08
2023-08-19T05:39:13.837Z,26.13
2023-08-19T05:41:41.266Z,26.04
2023-08-19T05:44:08.586Z,26.17
2023-08-19T05:46:35.880Z,26.15
2023-08-19T05:49:03.394Z,26.20
2023-08-19T05:51:30.938Z,26.26
2023-08-19T05:54:02.124Z,26.29
2023-08-19T05:56:29.559Z,26.29
2023-08-19T05:58:56.994Z,26.37
2023-08-19T06:01:25.152Z,26.42
2023-08-19T06:03:52.794Z,26.45
2023-08-19T06:06:20.273Z,26.58
2023-08-19T06:08:47.660Z,26.67
2023-08-19T06:11:15.112Z,26.78
2023-08-19T06:13:42.741Z,26.93
2023-08-19T06:16:10.083Z,26.99
2023-08-19T06:18:37.454Z,27.12
2023-08-19T06:21:04.786Z,27.15
2023-08-19T06:23:32.199Z,27.38
2023-08-19T06:25:59.706Z,27.40
2023-08-19T06:28:27.099Z,27.59
2023-08-19T06:30:55.041Z,27.57
2023-08-19T06:33:22.952Z,27.68
2023-08-19T06:35:50.933Z,27.83
2023-08-19T06:38:28.572Z,28.18
2023-08-19T06:41:04.122Z,29.34
2023-08-19T06:43:32.601Z,30.77
2023-08-19T06:46:03.986Z,31.65
2023-08-19T06:48:32.900Z,32.87
2023-08-19T06:51:01.835Z,33.42
2023-08-19T06:53:29.687Z,34.07
2023-08-19T06:55:59.790Z,34.58
2023-08-19T06:58:30.335Z,33.47
2023-08-19T07:01:04.572Z,32.70
2023-08-19T07:03:34.382Z,32.65
2023-08-19T07:06:03.924Z,32.25
2023-08-19T07:08:33.033Z,32.01
2023-08-19T07:11:02.225Z,31.51
2023-08-19T07:13:29.866Z,31.43
2023-08-19T07:16:03.437Z,31.48
2023-08-19T07:18:42.028Z,31.54
2023-08-19T07:21:13.102Z,31.46
2023-08-19T07:23:48.704Z,31.31
2023-08-19T07:26:16.733Z,31.36
2023-08-19T07:28:44.399Z,31.49
2023-08-19T07:31:12.671Z,31.75
2023-08-19T07:33:40.066Z,31.44
2023-08-19T07:36:07.581Z,31.33
2023-08-19T07:38:34.939Z,31.43
2023-08-19T07:41:04.695Z,31.59
2023-08-19T07:43:32.004Z,31.80
2023-08-19T07:46:00.439Z,31.97
2023-08-19T07:48:27.805Z,32.14
2023-08-19T07:50:55.161Z,32.20
2023-08-19T07:53:22.464Z,32.35
2023-08-19T07:55:49.933Z,32.32
2023-08-19T07:58:18.014Z,32.48
2023-08-19T08:00:45.390Z,32.65
2023-08-19T08:03:12.762Z,32.76
2023-08-19T08:05:40.611Z,32.86
2023-08-19T08:08:08.033Z,32.52
2023-08-19T08:10:35.378Z,33.18
2023-08-19T08:13:02.866Z,33.09
2023-08-19T08:15:32.754Z,32.78
2023-08-19T08:18:00.149Z,33.10
2023-08-19T08:20:27.589Z,33.09
2023-08-19T08:22:54.929Z,32.78
2023-08-19T08:25:22.244Z,33.09
2023-08-19T08:27:49.628Z,33.33
2023-08-19T08:30:16.987Z,33.17
2023-08-19T08:32:44.354Z,33.48
2023-08-19T08:35:11.812Z,33.74
2023-08-19T08:37:39.161Z,33.85
2023-08-19T08:40:07.082Z,34.09
2023-08-19T08:42:34.893Z,33.92
2023-08-19T08:45:02.501Z,33.53
2023-08-19T08:47:31.950Z,33.69
2023-08-19T08:50:00.327Z,33.85
2023-08-19T08:52:27.747Z,34.23
2023-08-19T08:54:57.108Z,34.05
2023-08-19T08:57:24.405Z,33.89
2023-08-19T08:59:51.835Z,34.69
2023-08-19T09:02:22.667Z,34.72
2023-08-19T09:04:50.155Z,34.47
2023-08-19T09:07:26.206Z,34.86
2023-08-19T09:09:54.294Z,35.03
2023-08-19T09:12:23.316Z,34.33
2023-08-19T09:14:58.715Z,34.01
2023-08-19T09:17:26.160Z,34.69
2023-08-19T09:19:53.564Z,34.55
2023-08-19T09:22:22.528Z,34.91
2023-08-19T09:24:50.953Z,34.93
2023-08-19T09:27:26.815Z,35.06
2023-08-19T09:29:54.515Z,35.22
2023-08-19T09:32:33.274Z,35.68
2023-08-19T09:35:09.623Z,35.80
2023-08-19T09:37:37.680Z,35.15
2023-08-19T09:40:09.570Z,35.49
2023-08-19T09:42:37.573Z,35.55
2023-08-19T09:45:06.082Z,35.86
2023-08-19T09:47:47.904Z,35.34
2023-08-19T09:50:19.752Z,35.42
2023-08-19T09:53:00.756Z,35.69
2023-08-19T09:55:31.424Z,35.58
2023-08-19T09:57:59.005Z,35.64
2023-08-19T10:00:26.450Z,35.70
2023-08-19T10:02:53.848Z,35.79
2023-08-19T10:05:21.875Z,36.28
2023-08-19T10:08:00.073Z,35.72
2023-08-19T10:10:31.152Z,35.08
2023-08-19T10:12:58.929Z,35.24
2023-08-19T10:15:27.858Z,35.86
2023-08-19T10:17:58.527Z,36.04
2023-08-19T10:20:29.092Z,36.27
2023-08-19T10:23:00.021Z,35.95
2023-08-19T10:25:31.775Z,36.34
2023-08-19T10:28:13.890Z,36.77
2023-08-19T10:30:41.334Z,35.79
2023-08-19T10:33:29.211Z,35.63
2023-08-19T10:36:01.820Z,36.21
2023-08-19T10:38:58.386Z,36.55
2023-08-19T10:41:28.183Z,35.97
2023-08-19T10:43:58.419Z,36.01
2023-08-19T10:46:35.318Z,36.35
2023-08-19T10:49:07.851Z,35.57
2023-08-19T10:52:06.960Z,35.63
2023-08-19T10:54:42.034Z,35.77
2023-08-19T10:57:23.672Z,35.57
2023-08-19T10:59:55.431Z,36.03
2023-08-19T11:02:23.270Z,36.24
2023-08-19T11:04:54.664Z,36.26
2023-08-19T11:07:22.371Z,36.58
2023-08-19T11:09:50.851Z,36.69
2023-08-19T11:12:19.812Z,36.51
2023-08-19T11:14:51.905Z,36.41
2023-08-19T11:17:27.613Z,36.24
2023-08-19T11:19:55.005Z,36.34
2023-08-19T11:22:22.719Z,36.58
2023-08-19T11:24:51.422Z,36.18
2023-08-19T11:27:19.976Z,35.89
2023-08-19T11:29:48.296Z,36.50
2023-08-19T11:32:20.837Z,36.69
2023-08-19T11:34:48.375Z,36.47
2023-08-19T11:37:17.204Z,36.18
2023-08-19T11:39:46.271Z,36.53
2023-08-19T11:42:14.256Z,36.72
2023-08-19T11:44:45.025Z,36.51
2023-08-19T11:47:13.213Z,35.96
2023-08-19T11:49:43.657Z,36.32
2023-08-19T11:52:23.051Z,36.70
2023-08-19T11:55:04.451Z,36.76
2023-08-19T11:57:35.993Z,36.54
2023-08-19T12:00:06.049Z,36.52
2023-08-19T12:02:40.594Z,36.85
2023-08-19T12:05:09.212Z,37.26
2023-08-19T12:07:36.610Z,37.16
2023-08-19T12:10:05.206Z,37.34
2023-08-19T12:12:33.339Z,37.25
2023-08-19T12:15:02.045Z,37.35
2023-08-19T12:17:30.714Z,36.80
2023-08-19T12:19:58.259Z,36.94
2023-08-19T12:22:25.653Z,36.86
2023-08-19T12:24:53.057Z,36.08
2023-08-19T12:27:20.449Z,36.75
2023-08-19T12:29:49.825Z,36.77
2023-08-19T12:32:17.156Z,36.76
2023-08-19T12:34:44.456Z,36.89
2023-08-19T12:37:11.788Z,37.12
2023-08-19T12:39:39.112Z,37.02
2023-08-19T12:42:06.605Z,37.07
2023-08-19T12:44:34.045Z,36.89
2023-08-19T12:47:02.136Z,36.70
2023-08-19T12:49:29.509Z,37.14
2023-08-19T12:51:57.506Z,37.03
2023-08-19T12:54:24.940Z,36.65
2023-08-19T12:56:52.285Z,36.77
2023-08-19T12:59:19.745Z,37.21
2023-08-19T13:01:47.069Z,37.20
2023-08-19T13:04:14.453Z,36.83
2023-08-19T13:06:42.792Z,36.94
2023-08-19T13:09:10.737Z,36.69
2023-08-19T13:11:38.472Z,36.82
2023-08-19T13:14:05.943Z,36.82
2023-08-19T13:16:33.240Z,37.00
2023-08-19T13:19:01.642Z,37.02
2023-08-19T13:21:29.021Z,37.03
2023-08-19T13:23:56.410Z,36.76
2023-08-19T13:26:23.731Z,36.56
2023-08-19T13:28:51.081Z,36.58
2023-08-19T13:31:19.535Z,36.10
2023-08-19T13:33:47.288Z,36.67
2023-08-19T13:36:14.664Z,36.93
2023-08-19T13:38:44.122Z,36.83
2023-08-19T13:41:12.036Z,36.72
2023-08-19T13:43:40.431Z,36.68
2023-08-19T13:46:08.480Z,36.62
2023-08-19T13:48:35.852Z,36.72
2023-08-19T13:51:03.227Z,36.10
2023-08-19T13:53:32.158Z,36.03
2023-08-19T13:55:59.528Z,36.34
2023-08-19T13:58:26.864Z,36.68
2023-08-19T14:00:54.200Z,36.88
2023-08-19T14:03:22.298Z,36.80
2023-08-19T14:05:49.691Z,36.85
2023-08-19T14:08:19.495Z,36.69
2023-08-19T14:10:46.953Z,36.67
2023-08-19T14:13:14.327Z,36.40
2023-08-19T14:15:41.900Z,36.24
2023-08-19T14:18:09.300Z,36.19
2023-08-19T14:20:36.664Z,36.19
2023-08-19T14:23:04.456Z,36.19
2023-08-19T14:25:31.857Z,36.55
2023-08-19T14:27:59.223Z,36.44
2023-08-19T14:30:26.560Z,35.97
2023-08-19T14:32:53.945Z,36.23
2023-08-19T14:35:22.046Z,36.19
2023-08-19T14:37:49.902Z,36.10
2023-08-19T14:40:20.239Z,36.05
2023-08-19T14:42:48.409Z,36.12
2023-08-19T14:45:16.374Z,36.02
2023-08-19T14:47:43.782Z,36.06
2023-08-19T14:50:11.329Z,36.22
2023-08-19T14:52:38.720Z,36.11
2023-08-19T14:55:11.858Z,35.97
2023-08-19T14:57:39.563Z,35.86
2023-08-19T15:00:13.753Z,35.84
2023-08-19T15:02:49.322Z,35.73
2023-08-19T15:05:17.218Z,35.77
2023-08-19T15:07:45.289Z,35.75
2023-08-19T15:10:12.701Z,35.57
2023-08-19T15:12:40.552Z,35.23
2023-08-19T15:15:09.442Z,35.36
2023-08-19T15:17:37.052Z,35.46
2023-08-19T15:20:05.417Z,35.35
2023-08-19T15:22:32.784Z,35.25
2023-08-19T15:25:00.230Z,35.25
2023-08-19T15:27:27.569Z,35.12
2023-08-19T15:29:54.973Z,35.08
2023-08-19T15:32:22.371Z,35.20
2023-08-19T15:34:49.759Z,35.07
2023-08-19T15:37:18.246Z,35.06
2023-08-19T15:39:45.691Z,35.04
2023-08-19T15:42:13.497Z,34.78
2023-08-19T15:44:41.050Z,34.83
2023-08-19T15:47:08.751Z,34.95
2023-08-19T15:49:36.107Z,34.88
2023-08-19T15:52:04.093Z,34.90
2023-08-19T15:54:31.468Z,34.80
2023-08-19T15:56:58.806Z,34.71
2023-08-19T15:59:26.172Z,34.86
2023-08-19T16:01:53.414Z,34.74
2023-08-19T16:04:20.743Z,34.77
2023-08-19T16:06:48.136Z,34.70
2023-08-19T16:09:16.956Z,34.74
2023-08-19T16:11:44.365Z,34.66
2023-08-19T16:14:11.708Z,34.58
2023-08-19T16:16:39.025Z,34.59
2023-08-19T16:19:06.501Z,34.42
2023-08-19T16:21:33.959Z,34.34
2023-08-19T16:24:01.396Z,34.27
2023-08-19T16:26:28.662Z,34.29
2023-08-19T16:28:55.948Z,34.27
2023-08-19T16:31:23.299Z,34.29
2023-08-19T16:33:50.658Z,34.37
2023-08-19T16:36:18.050Z,34.28
2023-08-19T16:38:45.398Z,34.30
2023-08-19T16:41:12.736Z,34.31
2023-08-19T16:43:40.134Z,34.33
2023-08-19T16:46:07.555Z,34.19
2023-08-19T16:48:35.056Z,34.17
2023-08-19T16:51:04.092Z,34.17
2023-08-19T16:53:31.476Z,34.08
2023-08-19T16:56:00.377Z,33.99
2023-08-19T16:58:28.079Z,33.86
2023-08-19T17:01:08.495Z,33.78
2023-08-19T17:03:35.826Z,33.83
2023-08-19T17:06:07.516Z,33.78
2023-08-19T17:08:35.597Z,33.70
2023-08-19T17:11:03.473Z,33.62
2023-08-19T17:13:30.879Z,33.52
2023-08-19T17:15:59.180Z,33.41
2023-08-19T17:18:27.164Z,33.35
2023-08-19T17:20:58.796Z,33.25
2023-08-19T17:23:30.130Z,33.21
2023-08-19T17:25:57.686Z,33.19
2023-08-19T17:28:25.379Z,33.11
2023-08-19T17:31:06.901Z,33.00
2023-08-19T17:33:34.529Z,32.93
2023-08-19T17:36:03.927Z,32.94
2023-08-19T17:38:32.471Z,32.85
2023-08-19T17:41:00.985Z,32.92
2023-08-19T17:43:28.659Z,32.89
2023-08-19T17:45:56.119Z,32.87
2023-08-19T17:48:23.556Z,32.79
2023-08-19T17:50:50.979Z,32.80
2023-08-19T17:53:19.075Z,32.62
2023-08-19T17:55:46.440Z,32.63
2023-08-19T17:58:13.805Z,32.62
2023-08-19T18:00:43.802Z,32.56
2023-08-19T18:03:11.632Z,32.60
2023-08-19T18:05:39.070Z,32.43
2023-08-19T18:08:06.995Z,32.25
2023-08-19T18:10:34.413Z,32.43
2023-08-19T18:13:02.076Z,32.35
2023-08-19T18:15:29.499Z,32.17
2023-08-19T18:17:56.925Z,31.99
2023-08-19T18:20:24.351Z,32.03
2023-08-19T18:22:51.727Z,31.91
2023-08-19T18:25:19.093Z,32.04
2023-08-19T18:27:51.756Z,32.01
2023-08-19T18:30:19.837Z,32.01
2023-08-19T18:32:50.230Z,31.95
2023-08-19T18:35:19.227Z,31.90
2023-08-19T18:37:47.035Z,31.82
2023-08-19T18:40:15.896Z,31.79
2023-08-19T18:42:44.251Z,31.70
2023-08-19T18:45:14.129Z,31.65
2023-08-19T18:48:02.211Z,31.52
2023-08-19T18:50:29.731Z,31.61
2023-08-19T18:52:57.178Z,31.53
2023-08-19T18:55:24.636Z,31.45
2023-08-19T18:57:52.004Z,31.44
2023-08-19T19:00:19.507Z,31.44
2023-08-19T19:02:46.993Z,31.55
2023-08-19T19:05:15.233Z,31.65
2023-08-19T19:07:42.921Z,31.56
2023-08-19T19:10:10.771Z,31.51
2023-08-19T19:12:39.587Z,31.49
2023-08-19T19:15:07.674Z,31.49
2023-08-19T19:17:53.025Z,31.38
2023-08-19T19:20:21.673Z,31.43
2023-08-19T19:22:49.980Z,31.44
2023-08-19T19:25:19.137Z,31.35
2023-08-19T19:27:48.049Z,31.25
2023-08-19T19:30:17.509Z,31.27
2023-08-19T19:32:46.126Z,31.13
2023-08-19T19:35:17.502Z,31.24
2023-08-19T19:37:45.577Z,31.19
2023-08-19T19:40:17.920Z,31.17
2023-08-19T19:42:45.905Z,31.12
2023-08-19T19:45:15.785Z,31.06
2023-08-19T19:47:46.813Z,31.10
2023-08-19T19:50:14.147Z,31.07
2023-08-19T19:52:41.712Z,31.06
2023-08-19T19:55:09.923Z,31.00
2023-08-19T19:57:37.981Z,30.94
2023-08-19T20:00:09.210Z,30.76
2023-08-19T20:02:36.969Z,30.67
2023-08-19T20:05:04.894Z,30.62
2023-08-19T20:07:32.305Z,30.66
2023-08-19T20:12:34.960Z,30.57
2023-08-19T20:15:02.418Z,30.54
2023-08-19T20:17:29.804Z,30.52
2023-08-19T20:19:57.207Z,30.50
2023-08-19T20:22:24.648Z,30.46
2023-08-19T20:24:51.923Z,30.37
2023-08-19T20:27:21.792Z,30.41
2023-08-19T20:29:49.179Z,30.37
2023-08-19T20:32:16.484Z,30.33
2023-08-19T20:34:43.904Z,30.39
2023-08-19T20:37:11.228Z,30.32
2023-08-19T20:39:38.510Z,30.36
2023-08-19T20:42:06.008Z,30.37
2023-08-19T20:44:33.378Z,30.38
2023-08-19T20:47:00.680Z,30.37
2023-08-19T20:49:28.203Z,30.40
2023-08-19T20:51:55.567Z,30.46
2023-08-19T20:54:22.831Z,30.42
2023-08-19T20:56:50.212Z,30.42
2023-08-19T20:59:17.628Z,30.36
2023-08-19T21:01:46.288Z,30.31
2023-08-19T21:04:13.717Z,30.31
2023-08-19T21:06:41.119Z,30.22
2023-08-19T21:09:08.451Z,30.03
2023-08-19T21:11:38.201Z,29.93
2023-08-19T21:14:06.003Z,29.85
2023-08-19T21:16:33.630Z,29.80
2023-08-19T21:19:01.031Z,29.78
2023-08-19T21:21:28.330Z,29.76
2023-08-19T21:23:55.704Z,29.81
2023-08-19T21:26:23.017Z,29.77
2023-08-19T21:28:50.443Z,29.65
2023-08-19T21:31:17.849Z,29.62
2023-08-19T21:33:45.192Z,29.57
2023-08-19T21:36:12.566Z,29.52
2023-08-19T21:38:39.900Z,29.32
2023-08-19T21:41:08.486Z,29.31
2023-08-19T21:43:35.829Z,29.14
2023-08-19T21:46:03.295Z,29.10
2023-08-19T21:48:30.631Z,28.95
2023-08-19T21:50:57.983Z,28.95
2023-08-19T21:53:25.454Z,29.00
2023-08-19T21:55:52.868Z,29.01
2023-08-19T21:58:23.171Z,29.08
2023-08-19T22:00:50.767Z,29.02
2023-08-19T22:03:18.260Z,29.00
2023-08-19T22:05:47.627Z,28.85
2023-08-19T22:08:15.660Z,28.85
2023-08-19T22:10:43.659Z,28.93
2023-08-19T22:13:11.549Z,28.97
2023-08-19T22:15:39.121Z,28.96
2023-08-19T22:18:07.306Z,28.97
2023-08-19T22:23:05.668Z,29.01
2023-08-19T22:25:33.174Z,28.95
2023-08-19T22:28:00.819Z,28.99
2023-08-19T22:30:28.168Z,28.90
2023-08-19T22:32:55.607Z,28.91
2023-08-19T22:35:23.135Z,28.80
2023-08-19T22:37:50.490Z,28.73
2023-08-19T22:40:17.977Z,28.71
2023-08-19T22:42:46.414Z,28.74
2023-08-19T22:45:15.957Z,28.67
2023-08-19T22:47:45.199Z,28.51
2023-08-19T22:50:14.383Z,28.46
2023-08-19T22:52:41.772Z,28.44
2023-08-19T22:55:10.916Z,28.48
2023-08-19T22:57:38.479Z,28.58
2023-08-19T23:00:06.915Z,28.61
2023-08-19T23:02:35.501Z,28.74
2023-08-19T23:05:03.064Z,28.85
2023-08-19T23:07:32.675Z,28.91
2023-08-19T23:10:00.892Z,28.82
2023-08-19T23:12:28.286Z,28.73
2023-08-19T23:14:57.719Z,28.62
2023-08-19T23:17:27.388Z,28.66
2023-08-19T23:19:54.718Z,28.67
2023-08-19T23:22:22.057Z,28.77
2023-08-19T23:24:50.311Z,28.70
2023-08-19T23:27:18.112Z,28.63
2023-08-19T23:29:45.437Z,28.54
2023-08-19T23:32:12.789Z,28.53
2023-08-19T23:34:40.167Z,28.59
2023-08-19T23:37:07.514Z,28.70
2023-08-19T23:39:35.001Z,28.63
2023-08-19T23:42:02.322Z,28.51
2023-08-19T23:44:29.718Z,28.48
2023-08-19T23:46:59.868Z,28.45
2023-08-19T23:49:27.491Z,28.36
2023-08-19T23:51:58.735Z,28.43
2023-08-19T23:54:28.826Z,28.39
2023-08-19T23:56:56.432Z,28.49
2023-08-19T23:59:24.141Z,28.40
